VTSPVDPP

Guest
Details From VTSP - Phuket Intl
To VDPP - Phnom Penh Intl
Flight Number -
Tags generated
Created
Modified
Stats Distance 445 nm / 825 km
Max Altitude 35,000 ft / 10,668 m
Waypoints 9
Social Downloads 0
Likes 0
Share VATSIM

Download

Looking for another format? Having issues loading an existing format? Contact us
Advertisement - Login to hide

Notes

Basic altitude profile: - Ascent Rate: 2500ft/min - Ascent Speed: 250kts - Cruise Altitude: 35000ft - Cruise Speed: 420kts - Descent Rate: 1500ft/min - Descent Speed: 250kts Options: - Use NATs: yes - Use PACOTS: yes - Use low airways: yes - Use high airways: yes

Route

VTSP STN W32 SMU R575 UPNEP R589 PNH VDPP

ID Type Via Altitude Latitude Longitude Leg Dist Tot Dist Heading (true) Name
O VTSP APT - 0 ft / 0 m 8.11320˚ 98.31687˚ - 0 nm - Phuket Intl
STN VOR - 27,800 ft / 8,473 m 9.12951˚ 99.13475˚ 77 nm 77 nm 38° / 39° SURAT THANI VOR-DME
SMU VOR W32 (AWY-HI) 35,000 ft / 10,668 m 9.54708˚ 100.06174˚ 60 nm 138 nm 65° / 66° SAMUI VOR-DME
UPNEP FIX R575 (AWY-HI) 35,000 ft / 10,668 m 9.70364˚ 100.49344˚ 27 nm 165 nm 70° / 70° -
KUMTO FIX R589 (AWY-HI) 35,000 ft / 10,668 m 9.96565˚ 101.19633˚ 44 nm 210 nm 69° / 69° -
PETRA FIX R589 (AWY-HI) 35,000 ft / 10,668 m 10.23659˚ 101.90275˚ 44 nm 254 nm 69° / 69° -
BENSA FIX R589 (AWY-HI) 33,400 ft / 10,180 m 10.44000˚ 102.44500˚ 34 nm 289 nm 69° / 69° -
PNH VOR R589 (AWY-LO) 8,000 ft / 2,438 m 11.54667˚ 104.84167˚ 156 nm 445 nm 65° / 65° PHNOM PENH VOR-DME
O VDPP APT - 0 ft / 0 m 11.54654˚ 104.84414˚ 0 nm 445 nm 93° / 93° Phnom Penh Intl

Altitude Profile

Advertisement - Login to hide

Weather


0- 5 10 15 20 25 30 35+ Temperature / ° C

Clouds and Precipitation
Forecast for 2017-12-18 18:00 UTC. Updated 2 hours ago

Ground ~20,000 ft ~40,000 ft Winds

VTSP

Details ICAO VTSP (HKT)
Name Phuket Intl
Region Thailand
Timezone Asia/Bangkok (UTC+7.0)
Stats Elevation 82 ft / 25 m (AMSL)
Location 8.113199° 98.316871°
Runways 1
Magnetic Variation 0.433° W

METAR

VTSP 181700Z VRB03KT 9999 FEW025 25/19 Q1014 NOSIG

Decode

TAF

TAF VTSP 181100Z 1812/1918 08008KT 9000 FEW020 BECMG 1902/1904 08012KT 9999

Decode

Departure Runways

ID Width Length Bearing (true) Bearing (mag) Surface Threshold Offset Overrun Length
09 148 ft / 45 m 9,870 ft / 3,008 m 84.45° 84.88° Asphalt 0 ft / 0 m 197 ft / 60 m
27 148 ft / 45 m 9,870 ft / 3,008 m 264.46° 264.89° Asphalt 0 ft / 0 m 197 ft / 60 m

VDPP

Details ICAO VDPP (PNH)
Name Phnom Penh Intl
Region Cambodia
Timezone Asia/Phnom_Penh (UTC+7.0)
Stats Elevation 40 ft / 12 m (AMSL)
Location 11.546542° 104.844142°
Runways 1
Magnetic Variation 0.493° W

METAR

VDPP 181700Z 01012KT 9000 NSC 23/15 Q1015

Decode

TAF

TAF VDPP 181100Z 1812/1906 01006KT 9999 FEW017 SCT040= TAF VDSR 181100Z 1812/1906 02006KT 9999 FEW017 SCT040

Decode

Destination Runways

ID Width Length Bearing (true) Bearing (mag) Surface Threshold Offset Overrun Length
05 144 ft / 44 m 9,815 ft / 2,992 m 45.61° 46.10° Asphalt 400 ft / 122 m 0 ft / 0 m
23 144 ft / 44 m 9,815 ft / 2,992 m 225.61° 226.10° Asphalt 492 ft / 150 m 0 ft / 0 m

Approach Navaids

Runway Type Ident Frequency Range Bearing (true) Bearing (mag) Slope Elevation
23 Localiser IPNP 109.70 MHz 18 nm / 33 km 225.62° 226.11° - 40 ft / 12 m (AMSL)
23 Glidescope IPNP 109.70 MHz 10 nm / 19 km 225.61° 226.10° 3.00° 37 ft / 11 m (AMSL)

Popular Alternatives